createdAt,value
2019-04-23T00:00:50.332Z,88.6
2019-04-23T00:02:02.534Z,88
2019-04-23T00:03:14.728Z,88.1
2019-04-23T00:04:26.934Z,88.1
2019-04-23T00:05:39.132Z,88
2019-04-23T00:06:51.337Z,88.1
2019-04-23T00:08:03.533Z,87.9
2019-04-23T00:09:15.772Z,88.1
2019-04-23T00:10:27.944Z,87.6
2019-04-23T00:11:40.139Z,87.9
2019-04-23T00:12:52.342Z,87.9
2019-04-23T00:14:04.540Z,87.7
2019-04-23T00:15:16.742Z,87.9
2019-04-23T00:16:28.935Z,87.7
2019-04-23T00:17:41.142Z,87.3
2019-04-23T00:18:53.354Z,87.5
2019-04-23T00:20:05.551Z,87
2019-04-23T00:21:17.750Z,86.9
2019-04-23T00:22:29.951Z,86.2
2019-04-23T00:23:42.171Z,86.6
2019-04-23T00:24:54.349Z,86.6
2019-04-23T00:26:06.878Z,86.8
2019-04-23T00:27:18.746Z,87
2019-04-23T00:28:30.964Z,86.7
2019-04-23T00:29:43.016Z,86.8
2019-04-23T00:30:55.362Z,86.3
2019-04-23T00:32:07.560Z,86.6
2019-04-23T00:33:19.766Z,85.9
2019-04-23T00:34:31.971Z,86.2
2019-04-23T00:35:44.160Z,86.3
2019-04-23T00:36:56.359Z,86.2
2019-04-23T00:38:08.593Z,86.6
2019-04-23T00:39:20.763Z,86.7
2019-04-23T00:40:32.971Z,86.2
2019-04-23T00:41:45.171Z,86.1
2019-04-23T00:42:57.368Z,85.9
2019-04-23T00:44:09.593Z,85.5
2019-04-23T00:45:21.762Z,85.5
2019-04-23T00:46:33.096Z,85
2019-04-23T00:47:46.168Z,85.1
2019-04-23T00:48:58.364Z,84.8
2019-04-23T00:50:10.633Z,84.6
2019-04-23T00:51:22.778Z,84.1
2019-04-23T00:52:34.978Z,84.4
2019-04-23T00:53:47.178Z,83.7
2019-04-23T00:54:59.879Z,83.8
2019-04-23T00:56:11.587Z,83.7
2019-04-23T00:57:23.778Z,83
2019-04-23T00:58:35.976Z,82.8
2019-04-23T00:59:48.173Z,83.3
2019-04-23T01:01:00.377Z,83.2
2019-04-23T01:02:12.058Z,83
2019-04-23T01:03:24.786Z,83.1
2019-04-23T01:04:36.989Z,82.8
2019-04-23T01:05:49.056Z,82.7
2019-04-23T01:07:01.388Z,83.1
2019-04-23T01:08:13.586Z,82.3
2019-04-23T01:09:25.786Z,82.8
2019-04-23T01:10:37.987Z,82.5
2019-04-23T01:11:50.468Z,82.7
2019-04-23T01:13:02.395Z,82.5
2019-04-23T01:14:14.595Z,82.8
2019-04-23T01:15:26.795Z,83.1
2019-04-23T01:16:38.992Z,82.8
2019-04-23T01:17:51.190Z,82.9
2019-04-23T01:19:03.405Z,83
2019-04-23T01:20:15.599Z,82.8
2019-04-23T01:21:27.805Z,82.9
2019-04-23T01:22:40.003Z,83.1
2019-04-23T01:23:52.200Z,83.2
2019-04-23T01:25:04.040Z,83.5
2019-04-23T01:26:16.605Z,84.3
2019-04-23T01:27:28.805Z,84.1
2019-04-23T01:28:41.008Z,83.8
2019-04-23T01:29:53.206Z,84.1
2019-04-23T01:31:05.413Z,84.5
2019-04-23T01:32:17.613Z,84.3
2019-04-23T01:33:29.813Z,84.2
2019-04-23T01:34:42.015Z,84
2019-04-23T01:35:54.213Z,84.6
2019-04-23T01:37:06.041Z,84.2
2019-04-23T01:38:18.615Z,84.5
2019-04-23T01:39:30.813Z,84.6
2019-04-23T01:40:43.017Z,84.7
2019-04-23T01:41:55.022Z,84.5
2019-04-23T01:43:07.420Z,84.9
2019-04-23T01:44:19.623Z,84.7
2019-04-23T01:45:31.823Z,84.6
2019-04-23T01:47:56.221Z,84.4
2019-04-23T01:49:08.421Z,85
2019-04-23T01:50:20.062Z,84.5
2019-04-23T01:51:32.821Z,84.8
2019-04-23T01:52:45.025Z,84.7
2019-04-23T01:53:57.231Z,85
2019-04-23T01:55:09.433Z,85.4
2019-04-23T01:56:21.636Z,85.1
2019-04-23T01:57:33.083Z,85.2
2019-04-23T01:58:46.049Z,85
2019-04-23T01:59:58.227Z,85.3
2019-04-23T02:01:10.432Z,85.5
2019-04-23T02:02:22.641Z,85.2
2019-04-23T02:03:34.845Z,85.1
2019-04-23T02:04:47.097Z,85.6
2019-04-23T02:05:59.235Z,85.7
2019-04-23T02:07:11.441Z,85.1
2019-04-23T02:08:23.639Z,85.4
2019-04-23T02:09:35.839Z,85.5
2019-04-23T02:10:48.042Z,85.6
2019-04-23T02:12:00.245Z,85.7
2019-04-23T02:13:12.449Z,86.3
2019-04-23T02:14:24.649Z,86.3
2019-04-23T02:15:36.843Z,86
2019-04-23T02:18:01.249Z,86.2
2019-04-23T02:19:13.447Z,86.5
2019-04-23T02:20:25.650Z,86.3
2019-04-23T02:21:37.841Z,86.4
2019-04-23T02:22:50.057Z,86.3
2019-04-23T02:24:02.262Z,86.4
2019-04-23T02:25:14.491Z,86.5
2019-04-23T02:26:26.660Z,86.3
2019-04-23T02:27:38.862Z,86
2019-04-23T02:28:51.053Z,86.4
2019-04-23T02:30:03.261Z,86.2
2019-04-23T02:31:15.459Z,86.1
2019-04-23T02:32:27.658Z,85.8
2019-04-23T02:33:39.865Z,86.4
2019-04-23T02:34:52.061Z,86.3
2019-04-23T02:36:04.267Z,86.3
2019-04-23T02:37:16.470Z,86.2
2019-04-23T02:38:28.661Z,86.4
2019-04-23T02:39:40.861Z,86.4
2019-04-23T02:40:53.064Z,86.6
2019-04-23T02:42:05.265Z,86.6
2019-04-23T02:43:17.473Z,87.2
2019-04-23T02:44:29.669Z,86.5
2019-04-23T02:45:41.877Z,86.8
2019-04-23T02:46:54.086Z,87
2019-04-23T02:48:06.275Z,87
2019-04-23T02:49:18.499Z,87.2
2019-04-23T02:50:30.671Z,87.2
2019-04-23T02:51:42.872Z,86.8
2019-04-23T02:52:55.113Z,87.2
2019-04-23T02:54:07.284Z,87.3
2019-04-23T02:55:19.488Z,86.8
2019-04-23T02:56:31.686Z,87
2019-04-23T02:57:43.887Z,87
2019-04-23T02:58:56.008Z,87.3
2019-04-23T03:00:08.293Z,86.7
2019-04-23T03:01:20.494Z,87
2019-04-23T03:02:32.694Z,87
2019-04-23T03:03:44.088Z,87
2019-04-23T03:04:57.094Z,87.5
2019-04-23T03:06:09.296Z,87.2
2019-04-23T03:07:21.496Z,87
2019-04-23T03:08:33.698Z,86.8
2019-04-23T03:09:45.899Z,86.8
2019-04-23T03:10:58.101Z,86.8
2019-04-23T03:12:10.304Z,86.5
2019-04-23T03:13:22.496Z,87
2019-04-23T03:14:34.700Z,86.6
2019-04-23T03:15:46.906Z,86.4
2019-04-23T03:16:59.104Z,87.2
2019-04-23T03:18:11.304Z,86.7
2019-04-23T03:19:23.506Z,86.6
2019-04-23T03:20:35.714Z,86.8
2019-04-23T03:21:47.091Z,87
2019-04-23T03:23:00.119Z,87.4
2019-04-23T03:24:12.315Z,87.5
2019-04-23T03:25:24.512Z,87.6
2019-04-23T03:26:36.722Z,87.6
2019-04-23T03:27:48.927Z,88.1
2019-04-23T03:29:01.124Z,87.8
2019-04-23T03:30:13.323Z,87.9
2019-04-23T03:31:25.520Z,87.5
2019-04-23T03:32:37.715Z,87.5
2019-04-23T03:33:49.920Z,87.9
2019-04-23T03:35:02.130Z,87.2
2019-04-23T03:36:14.332Z,87.2
2019-04-23T03:37:26.530Z,87.2
2019-04-23T03:38:38.731Z,86.9
2019-04-23T03:39:50.930Z,87
2019-04-23T03:41:03.141Z,86.6
2019-04-23T03:43:27.559Z,86.4
2019-04-23T03:44:39.738Z,86.7
2019-04-23T03:45:51.940Z,86.7
2019-04-23T03:47:04.140Z,86.8
2019-04-23T03:48:16.332Z,87
2019-04-23T03:49:28.540Z,87.6
2019-04-23T03:50:40.748Z,87.3
2019-04-23T03:51:52.944Z,87
2019-04-23T03:53:05.229Z,87.2
2019-04-23T03:54:17.348Z,87.5
2019-04-23T03:55:29.564Z,87.6
2019-04-23T03:56:41.074Z,87.2
2019-04-23T03:57:53.948Z,87
2019-04-23T03:59:06.157Z,87
2019-04-23T04:00:18.359Z,87
2019-04-23T04:01:30.551Z,86.7
2019-04-23T04:02:42.760Z,86.6
2019-04-23T04:03:54.095Z,86.5
2019-04-23T04:05:07.162Z,86.8
2019-04-23T04:06:19.357Z,86.7
2019-04-23T04:07:31.563Z,87.4
2019-04-23T04:08:43.769Z,87.2
2019-04-23T04:09:55.970Z,87.4
2019-04-23T04:11:08.163Z,87.3
2019-04-23T04:12:20.365Z,87.4
2019-04-23T04:13:32.582Z,87.4
2019-04-23T04:14:44.788Z,87.3
2019-04-23T04:15:56.966Z,87.4
2019-04-23T04:17:09.169Z,87.3
2019-04-23T04:18:21.375Z,87.3
2019-04-23T04:19:33.575Z,87.3
2019-04-23T04:20:45.784Z,87.2
2019-04-23T04:21:57.098Z,87.2
2019-04-23T04:23:10.169Z,87.3
2019-04-23T04:24:22.038Z,87.5
2019-04-23T04:25:34.587Z,87
2019-04-23T04:26:46.799Z,87
2019-04-23T04:27:58.985Z,87
2019-04-23T04:29:11.187Z,87.1
2019-04-23T04:30:23.377Z,87.2
2019-04-23T04:31:35.607Z,86.8
2019-04-23T04:32:47.783Z,87.2
2019-04-23T04:33:59.993Z,87.2
2019-04-23T04:35:12.019Z,86.3
2019-04-23T04:36:24.787Z,86.3
2019-04-23T04:37:36.596Z,86.1
2019-04-23T04:38:48.795Z,86.2
2019-04-23T04:40:00.987Z,86.3
2019-04-23T04:41:13.193Z,87
2019-04-23T04:42:25.393Z,86.7
2019-04-23T04:43:37.601Z,85.9
2019-04-23T04:44:49.080Z,85.9
2019-04-23T04:46:01.997Z,85.8
2019-04-23T04:47:14.207Z,86
2019-04-23T04:48:26.408Z,85.8
2019-04-23T04:49:38.601Z,85.8
2019-04-23T04:50:50.811Z,85.8
2019-04-23T04:52:03.000Z,86
2019-04-23T04:53:15.221Z,85.9
2019-04-23T04:54:27.402Z,85.6
2019-04-23T04:55:39.605Z,86
2019-04-23T04:56:51.802Z,85.6
2019-04-23T04:58:04.000Z,85.4
2019-04-23T04:59:16.195Z,85.5
2019-04-23T05:00:28.403Z,84.8
2019-04-23T05:01:40.603Z,85
2019-04-23T05:02:52.822Z,84.2
2019-04-23T05:04:05.014Z,84.1
2019-04-23T05:05:17.193Z,84
2019-04-23T05:06:29.039Z,83.8
2019-04-23T05:07:41.592Z,83.3
2019-04-23T05:08:53.787Z,83.1
2019-04-23T05:10:05.099Z,83.3
2019-04-23T05:11:18.189Z,83
2019-04-23T05:12:30.039Z,82.9
2019-04-23T05:13:42.589Z,83.1
2019-04-23T05:14:54.787Z,82.3
2019-04-23T05:16:06.989Z,82.1
2019-04-23T05:17:19.018Z,81.5
2019-04-23T05:18:31.387Z,81.9
2019-04-23T05:19:43.588Z,81.3
2019-04-23T05:20:55.773Z,80.9
2019-04-23T05:22:07.098Z,81.1
2019-04-23T05:23:20.179Z,80.7
2019-04-23T05:24:32.377Z,80.9
2019-04-23T05:25:44.058Z,81
2019-04-23T05:26:56.778Z,80.1
2019-04-23T05:29:21.179Z,80.3
2019-04-23T05:30:33.379Z,79.6
2019-04-23T05:31:45.091Z,79.9
2019-04-23T05:32:57.778Z,79.6
2019-04-23T05:34:09.973Z,78.9
2019-04-23T05:35:22.178Z,79.9
2019-04-23T05:36:34.378Z,79
2019-04-23T05:37:46.575Z,79.4
2019-04-23T05:38:58.775Z,79
2019-04-23T05:40:10.968Z,79.2
2019-04-23T05:41:23.001Z,78.8
2019-04-23T05:42:35.367Z,78.8
2019-04-23T05:43:47.056Z,78.6
2019-04-23T05:44:59.767Z,78.5
2019-04-23T05:46:11.968Z,78.8
2019-04-23T05:47:24.166Z,78.1
2019-04-23T05:48:36.367Z,78.1
2019-04-23T05:49:48.572Z,78.5
2019-04-23T05:51:00.758Z,78.1
2019-04-23T05:52:12.970Z,78.6
2019-04-23T05:53:25.165Z,77.8
2019-04-23T05:54:37.034Z,77.9
2019-04-23T05:55:49.556Z,77.1
2019-04-23T05:57:01.779Z,76.9
2019-04-23T05:58:13.955Z,78.2
2019-04-23T05:59:26.154Z,76.7
2019-04-23T06:00:38.348Z,78.1
2019-04-23T06:01:50.554Z,76.8
2019-04-23T06:03:02.755Z,77.5
2019-04-23T06:04:14.954Z,77.3
2019-04-23T06:05:27.174Z,77.3
2019-04-23T06:06:39.349Z,76.7
2019-04-23T06:07:51.543Z,76.8
2019-04-23T06:09:03.744Z,77.3
2019-04-23T06:10:15.944Z,77
2019-04-23T06:11:28.142Z,76.3
2019-04-23T06:12:40.034Z,76.8
2019-04-23T06:13:52.053Z,76.5
2019-04-23T06:15:04.752Z,76.7
2019-04-23T06:16:16.942Z,75.5
2019-04-23T06:17:29.001Z,75.8
2019-04-23T06:18:41.341Z,75.2
2019-04-23T06:19:53.538Z,75.2
2019-04-23T06:21:05.742Z,76.2
2019-04-23T06:22:17.934Z,75.8
2019-04-23T06:23:30.690Z,75.4
2019-04-23T06:24:42.333Z,75.3
2019-04-23T06:25:54.529Z,75.6
2019-04-23T06:27:06.733Z,75.2
2019-04-23T06:29:31.132Z,74.8
2019-04-23T06:31:55.530Z,75.4
2019-04-23T06:33:07.074Z,75.7
2019-04-23T06:34:19.930Z,74.2
2019-04-23T06:35:32.012Z,74.7
2019-04-23T06:36:44.322Z,75.2
2019-04-23T06:37:56.524Z,75
2019-04-23T06:39:08.789Z,74.1
2019-04-23T06:40:20.919Z,74
2019-04-23T06:41:33.118Z,73.5
2019-04-23T06:42:45.313Z,74.6
2019-04-23T06:43:57.525Z,73.2
2019-04-23T06:45:09.719Z,73.9
2019-04-23T06:46:21.919Z,74.4
2019-04-23T06:47:34.146Z,73.8
2019-04-23T06:48:46.314Z,74.8
2019-04-23T06:49:58.523Z,73.6
2019-04-23T06:51:10.724Z,73.9
2019-04-23T06:52:22.920Z,73.1
2019-04-23T06:53:35.109Z,73
2019-04-23T06:54:47.301Z,73.2
2019-04-23T06:55:59.516Z,74.6
2019-04-23T06:57:11.706Z,73.2
2019-04-23T06:58:24.253Z,72.8
2019-04-23T06:59:36.741Z,73.4
2019-04-23T07:00:48.304Z,73.6
2019-04-23T07:02:00.503Z,73
2019-04-23T07:03:12.071Z,72.3
2019-04-23T07:04:24.909Z,72.6
2019-04-23T07:05:37.108Z,72.8
2019-04-23T07:06:49.306Z,73.2
2019-04-23T07:08:01.515Z,73.2
2019-04-23T07:09:13.698Z,72.7
2019-04-23T07:10:25.897Z,73
2019-04-23T07:11:38.090Z,72.5
2019-04-23T07:12:50.305Z,72.6
2019-04-23T07:14:02.493Z,73
2019-04-23T07:15:14.694Z,72.2
2019-04-23T07:16:26.895Z,73.1
2019-04-23T07:17:39.008Z,73
2019-04-23T07:18:51.297Z,72.7
2019-04-23T07:20:03.496Z,72
2019-04-23T07:21:15.691Z,72.1
2019-04-23T07:22:27.945Z,71.4
2019-04-23T07:23:40.110Z,72.3
2019-04-23T07:24:52.315Z,71.5
2019-04-23T07:26:04.508Z,72.1
2019-04-23T07:27:16.069Z,70.9
2019-04-23T07:28:28.885Z,71.7
2019-04-23T07:29:41.084Z,72.2
2019-04-23T07:30:53.283Z,72.2
2019-04-23T07:32:05.484Z,72.1
2019-04-23T07:33:17.683Z,70.8
2019-04-23T07:34:29.088Z,72.5
2019-04-23T07:35:42.164Z,73
2019-04-23T07:36:54.285Z,71.8
2019-04-23T07:38:06.485Z,71
2019-04-23T07:39:18.691Z,71
2019-04-23T07:40:30.878Z,70.5
2019-04-23T07:41:43.091Z,71.4
2019-04-23T07:42:55.300Z,71.6
2019-04-23T07:44:07.491Z,69.8
2019-04-23T07:45:19.683Z,70.1
2019-04-23T07:46:31.088Z,71
2019-04-23T07:47:44.141Z,69.5
2019-04-23T07:48:56.283Z,71
2019-04-23T07:50:08.466Z,70.4
2019-04-23T07:51:20.672Z,69.2
2019-04-23T07:52:32.875Z,70.8
2019-04-23T07:53:45.073Z,69.2
2019-04-23T07:54:57.275Z,69.6
2019-04-23T07:56:09.473Z,68.9
2019-04-23T07:57:21.067Z,69.4
2019-04-23T07:58:33.909Z,66.9
2019-04-23T07:59:46.008Z,69.2
2019-04-23T08:00:58.290Z,67
2019-04-23T08:02:10.472Z,68.2
2019-04-23T08:03:23.122Z,69
2019-04-23T08:04:34.877Z,67.8
2019-04-23T08:05:47.078Z,67.5
2019-04-23T08:06:59.519Z,67.6
2019-04-23T08:08:11.047Z,67.1
2019-04-23T08:09:23.659Z,67.1
2019-04-23T08:10:35.864Z,66.1
2019-04-23T08:11:48.058Z,66.9
2019-04-23T08:13:00.257Z,67.1
2019-04-23T08:14:12.454Z,66
2019-04-23T08:15:24.668Z,65.7
2019-04-23T08:16:36.859Z,66.3
2019-04-23T08:17:49.059Z,66.5
2019-04-23T08:19:01.261Z,66.2
2019-04-23T08:20:13.463Z,65.3
2019-04-23T08:21:25.659Z,65.1
2019-04-23T08:22:37.860Z,65.3
2019-04-23T08:23:50.058Z,65.1
2019-04-23T08:25:02.257Z,64.4
2019-04-23T08:26:14.483Z,64.3
2019-04-23T08:27:26.653Z,64.7
2019-04-23T08:28:38.084Z,67.2
2019-04-23T08:29:51.054Z,65.7
2019-04-23T08:31:03.246Z,65.2
2019-04-23T08:32:15.448Z,65.4
2019-04-23T08:33:27.064Z,64.1
2019-04-23T08:34:39.855Z,66
2019-04-23T08:35:52.045Z,65.2
2019-04-23T08:37:04.277Z,65.8
2019-04-23T08:38:16.439Z,64.8
2019-04-23T08:39:28.640Z,65.9
2019-04-23T08:40:40.841Z,64.4
2019-04-23T08:41:53.037Z,65
2019-04-23T08:43:05.232Z,64.6
2019-04-23T08:44:17.439Z,63.7
2019-04-23T08:45:29.635Z,64.7
2019-04-23T08:46:41.846Z,63.9
2019-04-23T08:47:54.041Z,64.3
2019-04-23T08:49:06.226Z,64.2
2019-04-23T08:50:18.432Z,64.7
2019-04-23T08:51:30.628Z,66
2019-04-23T08:52:42.823Z,64
2019-04-23T08:53:55.029Z,63.9
2019-04-23T08:55:07.226Z,64.6
2019-04-23T08:56:19.446Z,64.7
2019-04-23T08:57:31.624Z,63.8
2019-04-23T08:58:43.814Z,62.4
2019-04-23T08:59:56.003Z,62.7
2019-04-23T09:01:08.227Z,63.3
2019-04-23T09:02:20.419Z,64.2
2019-04-23T09:04:44.816Z,63
2019-04-23T09:05:57.016Z,63.6
2019-04-23T09:07:09.214Z,63.8
2019-04-23T09:08:21.428Z,64.1
2019-04-23T09:09:33.614Z,63.8
2019-04-23T09:10:45.808Z,63.4
2019-04-23T09:11:57.998Z,63.7
2019-04-23T09:13:10.020Z,62.6
2019-04-23T09:14:22.447Z,63.4
2019-04-23T09:15:34.604Z,63.3
2019-04-23T09:16:46.812Z,62.4
2019-04-23T09:17:58.997Z,64
2019-04-23T09:19:11.204Z,62.9
2019-04-23T09:20:23.405Z,61.7
2019-04-23T09:21:35.586Z,63.4
2019-04-23T09:22:47.866Z,61.7
2019-04-23T09:23:59.993Z,62.8
2019-04-23T09:25:12.193Z,62.9
2019-04-23T09:26:24.449Z,63.6
2019-04-23T09:27:36.591Z,64.2
2019-04-23T09:28:48.825Z,63.4
2019-04-23T09:30:00.999Z,62.7
2019-04-23T09:31:13.195Z,63.6
2019-04-23T09:32:25.392Z,62.9
2019-04-23T09:33:37.582Z,61.5
2019-04-23T09:34:49.777Z,63.7
2019-04-23T09:36:01.989Z,62.8
2019-04-23T09:37:14.001Z,62
2019-04-23T09:38:26.383Z,62
2019-04-23T09:39:38.582Z,62.5
2019-04-23T09:40:50.078Z,62.5
2019-04-23T09:42:02.989Z,62.3
2019-04-23T09:43:15.174Z,62.6
2019-04-23T09:44:27.476Z,62.6
2019-04-23T09:45:39.574Z,62.9
2019-04-23T09:46:51.770Z,63.1
2019-04-23T09:48:03.971Z,63
2019-04-23T09:49:16.178Z,64.1
2019-04-23T09:50:28.367Z,62.7
2019-04-23T09:51:40.057Z,62
2019-04-23T09:52:52.770Z,61.7
2019-04-23T09:54:04.973Z,64.3
2019-04-23T09:55:17.160Z,63.9
2019-04-23T09:56:29.360Z,62.8
2019-04-23T09:57:41.583Z,61.8
2019-04-23T09:58:53.770Z,62.8
2019-04-23T10:00:05.961Z,62
2019-04-23T10:01:18.174Z,63.1
2019-04-23T10:02:30.362Z,62.3
2019-04-23T10:03:42.056Z,61
2019-04-23T10:04:54.759Z,62.7
2019-04-23T10:06:06.949Z,61.1
2019-04-23T10:07:19.147Z,62.9
2019-04-23T10:08:31.354Z,61.8
2019-04-23T10:09:43.543Z,61.3
2019-04-23T10:10:55.749Z,62.6
2019-04-23T10:12:07.957Z,61.8
2019-04-23T10:13:20.014Z,62.6
2019-04-23T10:14:32.349Z,60.5
2019-04-23T10:15:44.598Z,61.8
2019-04-23T10:16:56.752Z,63
2019-04-23T10:18:08.937Z,63
2019-04-23T10:19:23.677Z,62.8
2019-04-23T10:20:33.339Z,62.2
2019-04-23T10:21:45.539Z,63.4
2019-04-23T10:22:57.739Z,62.5
2019-04-23T10:24:09.942Z,60.1
2019-04-23T10:25:22.840Z,61.6
2019-04-23T10:26:34.033Z,61.6
2019-04-23T10:27:46.569Z,61
2019-04-23T10:28:58.737Z,61.3
2019-04-23T10:30:11.309Z,60.5
2019-04-23T10:31:23.001Z,62.1
2019-04-23T10:32:35.327Z,61.3
2019-04-23T10:33:47.535Z,60.5
2019-04-23T10:34:59.729Z,60.5
2019-04-23T10:36:11.933Z,61.7
2019-04-23T10:37:24.130Z,60.5
2019-04-23T10:38:36.335Z,61.4
2019-04-23T10:41:00.742Z,61.9
2019-04-23T10:42:12.911Z,60.5
2019-04-23T10:43:25.118Z,60
2019-04-23T10:44:37.325Z,61
2019-04-23T10:45:49.051Z,60.8
2019-04-23T10:47:01.714Z,61.8
2019-04-23T10:48:13.919Z,61.1
2019-04-23T10:49:26.115Z,60.4
2019-04-23T10:50:38.312Z,61.7
2019-04-23T10:51:50.508Z,59.3
2019-04-23T10:53:02.705Z,61.4
2019-04-23T10:54:14.905Z,60
2019-04-23T10:55:27.124Z,60.5
2019-04-23T10:56:39.304Z,61
2019-04-23T10:57:51.569Z,60.9
2019-04-23T10:59:03.957Z,59.8
2019-04-23T11:00:15.906Z,60.5
2019-04-23T11:01:28.111Z,60.3
2019-04-23T11:02:40.307Z,59.5
2019-04-23T11:03:52.495Z,59.2
2019-04-23T11:05:04.696Z,59.4
2019-04-23T11:06:16.896Z,59.4
2019-04-23T11:07:29.096Z,59.8
2019-04-23T11:08:41.304Z,61.6
2019-04-23T11:09:53.496Z,59.1
2019-04-23T11:11:06.486Z,59.9
2019-04-23T11:12:17.888Z,61.7
2019-04-23T11:13:30.095Z,60.4
2019-04-23T11:14:42.288Z,60.7
2019-04-23T11:15:54.487Z,61.4
2019-04-23T11:17:06.686Z,60.3
2019-04-23T11:18:18.893Z,61.7
2019-04-23T11:19:31.084Z,60
2019-04-23T11:20:43.283Z,60.3
2019-04-23T11:21:55.480Z,61.2
2019-04-23T11:23:07.687Z,60.5
2019-04-23T11:24:20.009Z,61.1
2019-04-23T11:25:32.086Z,60.9
2019-04-23T11:26:44.028Z,60.7
2019-04-23T11:27:56.508Z,61.9
2019-04-23T11:29:08.677Z,60
2019-04-23T11:30:20.876Z,59.5
2019-04-23T11:31:33.074Z,60.8
2019-04-23T11:32:45.304Z,60.6
2019-04-23T11:33:57.484Z,59.4
2019-04-23T11:35:09.672Z,60.9
2019-04-23T11:36:21.875Z,58.1
2019-04-23T11:37:34.073Z,59.1
2019-04-23T11:38:46.268Z,60.7
2019-04-23T11:39:58.476Z,59.6
2019-04-23T11:41:10.660Z,60.2
2019-04-23T11:42:22.864Z,61.6
2019-04-23T11:43:35.063Z,60.6
2019-04-23T11:44:47.260Z,59.8
2019-04-23T11:45:59.467Z,60.3
2019-04-23T11:47:11.663Z,59
2019-04-23T11:48:23.086Z,59.8
2019-04-23T11:49:36.066Z,61.2
2019-04-23T11:50:48.287Z,58.9
2019-04-23T11:52:00.463Z,59.2
2019-04-23T11:53:12.653Z,58.8
2019-04-23T11:54:24.853Z,58.8
2019-04-23T11:56:49.282Z,58.8
2019-04-23T11:58:01.450Z,58.1
2019-04-23T11:59:13.656Z,58.3
2019-04-23T12:00:25.852Z,58.4
2019-04-23T12:01:38.057Z,58.7
2019-04-23T12:02:50.250Z,58.5
2019-04-23T12:04:02.438Z,57.7
2019-04-23T12:05:14.642Z,57.7
2019-04-23T12:06:26.842Z,57.3
2019-04-23T12:07:39.004Z,56.7
2019-04-23T12:08:51.253Z,56.3
2019-04-23T12:10:03.044Z,57.2
2019-04-23T12:11:15.650Z,56.9
2019-04-23T12:12:27.847Z,56.5
2019-04-23T12:13:40.034Z,57.3
2019-04-23T12:16:04.442Z,55.6
2019-04-23T12:17:16.633Z,57
2019-04-23T12:18:28.831Z,57.4
2019-04-23T12:19:41.032Z,57
2019-04-23T12:20:53.234Z,55.8
2019-04-23T12:22:05.435Z,56.8
2019-04-23T12:23:17.630Z,56.7
2019-04-23T12:24:29.833Z,56.8
2019-04-23T12:25:42.217Z,55.3
2019-04-23T12:26:54.227Z,56.4
2019-04-23T12:28:06.431Z,57
2019-04-23T12:29:18.627Z,57.2
2019-04-23T12:30:30.819Z,57.4
2019-04-23T12:31:43.034Z,55.9
2019-04-23T12:32:55.219Z,57.3
2019-04-23T12:34:07.429Z,57.4
2019-04-23T12:35:19.062Z,56.8
2019-04-23T12:36:31.817Z,56.8
2019-04-23T12:37:44.023Z,57.8
2019-04-23T12:38:56.222Z,58
2019-04-23T12:40:08.423Z,56.5
2019-04-23T12:41:20.615Z,57.5
2019-04-23T12:42:32.804Z,57.6
2019-04-23T12:43:45.011Z,56.6
2019-04-23T12:44:57.209Z,57.6
2019-04-23T12:46:09.040Z,57.6
2019-04-23T12:47:21.609Z,56.5
2019-04-23T12:48:33.815Z,57.7
2019-04-23T12:49:46.011Z,56.2
2019-04-23T12:50:58.210Z,57.7
2019-04-23T12:52:10.040Z,58.1
2019-04-23T12:53:22.598Z,56.9
2019-04-23T12:54:34.798Z,57.3
2019-04-23T12:55:46.992Z,57.3
2019-04-23T12:56:59.197Z,57.4
2019-04-23T12:58:11.399Z,56.1
2019-04-23T12:59:23.603Z,58.6
2019-04-23T13:00:35.797Z,56.7
2019-04-23T13:01:47.996Z,57
2019-04-23T13:03:00.208Z,55.7
2019-04-23T13:04:12.401Z,56.3
2019-04-23T13:05:24.586Z,57
2019-04-23T13:06:36.790Z,57.7
2019-04-23T13:07:48.987Z,56.9
2019-04-23T13:09:01.191Z,56.4
2019-04-23T13:10:13.387Z,56.4
2019-04-23T13:11:25.618Z,56.9
2019-04-23T13:12:37.838Z,56.8
2019-04-23T13:13:49.099Z,55.5
2019-04-23T13:15:02.018Z,56.6
2019-04-23T13:16:14.387Z,56.5
2019-04-23T13:17:26.005Z,55.7
2019-04-23T13:18:38.775Z,55.9
2019-04-23T13:19:50.980Z,56.4
2019-04-23T13:21:03.180Z,56.3
2019-04-23T13:22:15.376Z,57.1
2019-04-23T13:23:27.577Z,57
2019-04-23T13:24:39.773Z,56.4
2019-04-23T13:25:51.979Z,56.7
2019-04-23T13:27:04.178Z,56.1
2019-04-23T13:28:16.368Z,56.1
2019-04-23T13:29:28.567Z,57.2
2019-04-23T13:30:40.769Z,55.5
2019-04-23T13:31:52.979Z,56.6
2019-04-23T13:33:05.016Z,55.7
2019-04-23T13:34:17.363Z,56
2019-04-23T13:35:29.563Z,56.3
2019-04-23T13:36:41.770Z,55.8
2019-04-23T13:37:53.972Z,55.8
2019-04-23T13:39:06.166Z,55.7
2019-04-23T13:40:18.368Z,55.9
2019-04-23T13:41:30.626Z,54.5
2019-04-23T13:42:42.075Z,56.3
2019-04-23T13:43:54.960Z,56.3
2019-04-23T13:45:07.162Z,54.8
2019-04-23T13:46:19.357Z,55.5
2019-04-23T13:47:31.581Z,55.4
2019-04-23T13:48:43.755Z,55.3
2019-04-23T13:49:55.985Z,55.3
2019-04-23T13:51:08.163Z,55.8
2019-04-23T13:52:20.378Z,54.7
2019-04-23T13:53:32.546Z,54.7
2019-04-23T13:54:44.749Z,55.3
2019-04-23T13:55:56.946Z,54.6
2019-04-23T13:57:09.146Z,54.9
2019-04-23T13:58:21.346Z,55.7
2019-04-23T13:59:33.552Z,54.1
2019-04-23T14:00:45.745Z,55.3
2019-04-23T14:01:57.953Z,55.8
2019-04-23T14:03:10.146Z,55.6
2019-04-23T14:04:22.339Z,54.3
2019-04-23T14:05:34.538Z,55.3
2019-04-23T14:06:46.737Z,54
2019-04-23T14:07:58.942Z,54.4
2019-04-23T14:09:11.135Z,54.6
2019-04-23T14:10:23.344Z,54.3
2019-04-23T14:11:35.054Z,54.3
2019-04-23T14:12:47.734Z,54.3
2019-04-23T14:13:59.928Z,54.4
2019-04-23T14:15:12.124Z,53.8
2019-04-23T14:16:24.367Z,55.4
2019-04-23T14:17:36.524Z,55.7
2019-04-23T14:18:48.724Z,54.8
2019-04-23T14:20:00.096Z,54.1
2019-04-23T14:21:13.124Z,54.7
2019-04-23T14:22:25.326Z,55.9
2019-04-23T14:23:37.519Z,55.1
2019-04-23T14:24:49.724Z,54.5
2019-04-23T14:26:02.042Z,54.3
2019-04-23T14:27:14.128Z,55
2019-04-23T14:28:26.324Z,54.9
2019-04-23T14:29:38.529Z,54.6
2019-04-23T14:30:50.719Z,55.5
2019-04-23T14:32:02.928Z,54.5
2019-04-23T14:33:15.125Z,54.2
2019-04-23T14:34:27.032Z,54.8
2019-04-23T14:35:39.527Z,53.8
2019-04-23T14:36:51.732Z,55.4
2019-04-23T14:38:03.924Z,54.6
2019-04-23T14:39:16.126Z,54.4
2019-04-23T14:40:28.324Z,54.1
2019-04-23T14:41:40.521Z,54.8
2019-04-23T14:42:52.725Z,53.6
2019-04-23T14:44:04.092Z,55
2019-04-23T14:45:17.125Z,54.9
2019-04-23T14:46:29.323Z,54.1
2019-04-23T14:47:41.005Z,53.4
2019-04-23T14:48:53.726Z,53.7
2019-04-23T14:50:05.948Z,53.3
2019-04-23T14:51:18.129Z,52.9
2019-04-23T14:52:30.332Z,54.6
2019-04-23T14:53:42.529Z,54.4
2019-04-23T14:54:54.765Z,54.4
2019-04-23T14:56:07.671Z,54.3
2019-04-23T14:57:19.132Z,53.8
2019-04-23T14:58:31.335Z,53.1
2019-04-23T14:59:43.526Z,55.2
2019-04-23T15:00:55.733Z,55
2019-04-23T15:02:07.932Z,54
2019-04-23T15:03:20.135Z,53.4
2019-04-23T15:04:32.334Z,52.8
2019-04-23T15:05:44.053Z,53.1
2019-04-23T15:06:56.730Z,53.8
2019-04-23T15:08:08.934Z,53.6
2019-04-23T15:09:21.132Z,55.1
2019-04-23T15:10:33.336Z,54.1
2019-04-23T15:11:45.534Z,54.8
2019-04-23T15:12:57.726Z,53.8
2019-04-23T15:14:09.934Z,53.9
2019-04-23T15:15:22.134Z,53.4
2019-04-23T15:16:34.336Z,53.3
2019-04-23T15:17:46.054Z,55.1
2019-04-23T15:18:58.736Z,54.7
2019-04-23T15:20:10.942Z,53.6
2019-04-23T15:21:23.144Z,53.8
2019-04-23T15:22:35.340Z,54
2019-04-23T15:23:47.551Z,53.8
2019-04-23T15:24:59.074Z,53.6
2019-04-23T15:26:11.094Z,53.9
2019-04-23T15:27:24.152Z,54.1
2019-04-23T15:28:36.338Z,53.9
2019-04-23T15:29:48.545Z,55.5
2019-04-23T15:31:00.744Z,55.9
2019-04-23T15:32:12.094Z,54.6
2019-04-23T15:33:25.144Z,56.2
2019-04-23T15:34:37.348Z,55.4
2019-04-23T15:35:49.594Z,54.9
2019-04-23T15:37:01.756Z,54.9
2019-04-23T15:38:13.956Z,55
2019-04-23T15:39:26.152Z,54.8
2019-04-23T15:40:38.354Z,54.3
2019-04-23T15:41:50.546Z,55.4
2019-04-23T15:43:02.757Z,54.5
2019-04-23T15:44:14.953Z,54.8
2019-04-23T15:45:27.147Z,55
2019-04-23T15:46:39.355Z,54.6
2019-04-23T15:47:51.054Z,56
2019-04-23T15:49:03.756Z,54.7
2019-04-23T15:50:15.956Z,56.3
2019-04-23T15:51:28.148Z,55.9
2019-04-23T15:52:40.003Z,56.8
2019-04-23T15:53:52.554Z,56.6
2019-04-23T15:55:04.752Z,56.8
2019-04-23T15:56:16.955Z,56.5
2019-04-23T15:57:29.147Z,56.8
2019-04-23T15:58:41.365Z,55.8
2019-04-23T15:59:53.565Z,56.3
2019-04-23T16:01:05.764Z,55.5
2019-04-23T16:02:17.963Z,55.9
2019-04-23T16:03:30.162Z,57.5
2019-04-23T16:04:42.363Z,56.6
2019-04-23T16:05:54.565Z,57.4
2019-04-23T16:07:06.763Z,55.6
2019-04-23T16:08:18.965Z,56
2019-04-23T16:09:31.167Z,56.4
2019-04-23T16:10:43.357Z,56.4
2019-04-23T16:11:55.575Z,56.8
2019-04-23T16:13:07.780Z,56.7
2019-04-23T16:14:19.959Z,57.1
2019-04-23T16:15:32.163Z,57.4
2019-04-23T16:16:44.358Z,56.6
2019-04-23T16:17:56.563Z,58.2
2019-04-23T16:19:08.765Z,58.6
2019-04-23T16:20:20.965Z,58
2019-04-23T16:21:33.180Z,58